Kezdőlap
METAR-TAF:

METAR-TAF

Repülőterek :

Litchfield Municipal Airport

Litchfield, Minnesota, Amerikai Egyesült Államok

földrajzi szélesség: 45-05-50N, földrajzi hosszúság: 094-30-26W, magasság: 348 m

Jelenlegi meteorológiai megfigyelések

A jelentés 10 perccel ezelõtt készült, 16:35 UTC
Délnyugati szél 4 kt
Hőmérséklet 13°C
Páratartalom 28%
Légköri nyomás 1030 hPa
Látótávolság: 16.1 km
Derült ég

METAR: KLJF 111635Z AUTO 23004KT 10SM CLR 13/M05 A3041 RMK AO2

Idő: 11:45 (16:45 UTC)


TAF: hiányzik

Meteorológiai megfigyelések és előrejelzések több, mint 4000 repülőtéren (METAR és TAF jelentéseket).

A térképen piros és sárga pontok jelzik az elérhető meteorológiai állomásokat.

Mozgassa az egeret a pont fölött, hogy megjelenjen az állomás neve.

Azután kattintson az időjárási megfigyelések és előrejelzések megtekintéséhez.

A térkép megváltoztatása: kattintson a fekete keresztel jelölt zöld gombra ráközelítéshez, a vonallal jelölt zöld gombra távolításhoz, vagy a zöld nyilakra a szomszédos térképek eléréséhez.


METAR-TAF: